sensor_id;sensor_type;location;lat;lon;timestamp;pressure;altitude;pressure_sealevel;temperature;humidity
47556;BME280;33291;46.222;26.460;2023-03-18T00:01:56;97174.63;;;-1.48;59.31
47556;BME280;33291;46.222;26.460;2023-03-18T00:04:22;97134.53;;;-1.73;59.66
47556;BME280;33291;46.222;26.460;2023-03-18T00:06:49;97171.44;;;-1.55;59.58
47556;BME280;33291;46.222;26.460;2023-03-18T00:09:14;97178.31;;;-1.57;59.83
47556;BME280;33291;46.222;26.460;2023-03-18T00:11:40;97175.78;;;-1.58;59.62
47556;BME280;33291;46.222;26.460;2023-03-18T00:14:07;97170.06;;;-1.65;59.09
47556;BME280;33291;46.222;26.460;2023-03-18T00:16:33;97152.50;;;-1.76;59.26
47556;BME280;33291;46.222;26.460;2023-03-18T00:19:00;97174.16;;;-1.61;59.78
47556;BME280;33291;46.222;26.460;2023-03-18T00:21:27;97169.16;;;-1.64;59.94
47556;BME280;33291;46.222;26.460;2023-03-18T00:23:52;97174.50;;;-1.72;60.24
47556;BME280;33291;46.222;26.460;2023-03-18T00:26:21;97171.13;;;-1.72;60.04
47556;BME280;33291;46.222;26.460;2023-03-18T00:28:47;97172.75;;;-1.70;60.05
47556;BME280;33291;46.222;26.460;2023-03-18T00:31:12;97163.63;;;-1.79;59.62
47556;BME280;33291;46.222;26.460;2023-03-18T00:33:38;97137.56;;;-1.90;59.50
47556;BME280;33291;46.222;26.460;2023-03-18T00:36:06;97167.69;;;-1.71;59.60
47556;BME280;33291;46.222;26.460;2023-03-18T00:38:35;97166.00;;;-1.72;59.41
47556;BME280;33291;46.222;26.460;2023-03-18T00:41:00;97165.22;;;-1.74;60.24
47556;BME280;33291;46.222;26.460;2023-03-18T00:43:39;97152.59;;;-1.79;60.45
47556;BME280;33291;46.222;26.460;2023-03-18T00:46:25;97124.16;;;-1.97;60.77
47556;BME280;33291;46.222;26.460;2023-03-18T00:48:53;97155.09;;;-1.77;60.61
47556;BME280;33291;46.222;26.460;2023-03-18T00:51:20;97161.13;;;-1.80;61.00
47556;BME280;33291;46.222;26.460;2023-03-18T00:53:49;97152.81;;;-1.87;60.33
47556;BME280;33291;46.222;26.460;2023-03-18T00:56:17;97149.28;;;-1.83;60.21
47556;BME280;33291;46.222;26.460;2023-03-18T00:58:44;97152.75;;;-1.84;59.25
47556;BME280;33291;46.222;26.460;2023-03-18T01:01:10;97145.03;;;-1.82;58.91
47556;BME280;33291;46.222;26.460;2023-03-18T01:03:37;97156.81;;;-1.78;58.99
47556;BME280;33291;46.222;26.460;2023-03-18T01:06:03;97145.13;;;-1.85;59.21
47556;BME280;33291;46.222;26.460;2023-03-18T01:08:30;97145.91;;;-1.83;59.25
47556;BME280;33291;46.222;26.460;2023-03-18T01:10:56;97140.03;;;-1.85;59.55
47556;BME280;33291;46.222;26.460;2023-03-18T01:13:22;97137.47;;;-1.85;59.37
47556;BME280;33291;46.222;26.460;2023-03-18T01:15:50;97104.13;;;-2.09;59.56
47556;BME280;33291;46.222;26.460;2023-03-18T01:18:16;97140.09;;;-1.88;59.87
47556;BME280;33291;46.222;26.460;2023-03-18T01:20:42;97135.97;;;-1.92;59.85
47556;BME280;33291;46.222;26.460;2023-03-18T01:23:09;97132.59;;;-1.94;59.58
47556;BME280;33291;46.222;26.460;2023-03-18T01:25:35;97103.34;;;-2.11;59.16
47556;BME280;33291;46.222;26.460;2023-03-18T01:28:01;97135.97;;;-1.92;59.98
47556;BME280;33291;46.222;26.460;2023-03-18T01:30:28;97114.91;;;-2.01;60.46
47556;BME280;33291;46.222;26.460;2023-03-18T01:32:55;97125.13;;;-2.01;60.50
47556;BME280;33291;46.222;26.460;2023-03-18T01:35:21;97114.19;;;-2.04;59.95
47556;BME280;33291;46.222;26.460;2023-03-18T01:37:47;97128.31;;;-1.92;60.23
47556;BME280;33291;46.222;26.460;2023-03-18T01:40:13;97128.41;;;-1.95;60.12
47556;BME280;33291;46.222;26.460;2023-03-18T01:42:39;97133.50;;;-1.95;60.30
47556;BME280;33291;46.222;26.460;2023-03-18T01:45:20;97126.00;;;-2.00;61.00
47556;BME280;33291;46.222;26.460;2023-03-18T01:47:46;97137.06;;;-2.01;61.19
47556;BME280;33291;46.222;26.460;2023-03-18T01:50:20;97137.22;;;-2.06;60.99
47556;BME280;33291;46.222;26.460;2023-03-18T01:52:48;97109.59;;;-2.21;61.06
47556;BME280;33291;46.222;26.460;2023-03-18T01:55:18;97133.78;;;-2.05;61.13
47556;BME280;33291;46.222;26.460;2023-03-18T01:57:45;97120.50;;;-2.16;61.61
47556;BME280;33291;46.222;26.460;2023-03-18T02:00:13;97127.28;;;-2.15;61.73
47556;BME280;33291;46.222;26.460;2023-03-18T02:02:42;97138.19;;;-2.10;61.87
47556;BME280;33291;46.222;26.460;2023-03-18T02:05:10;97142.50;;;-2.12;62.15
47556;BME280;33291;46.222;26.460;2023-03-18T02:07:40;97136.66;;;-2.16;62.08
47556;BME280;33291;46.222;26.460;2023-03-18T02:10:28;97136.69;;;-2.17;62.33
47556;BME280;33291;46.222;26.460;2023-03-18T02:13:02;97137.66;;;-2.21;62.01
47556;BME280;33291;46.222;26.460;2023-03-18T02:15:29;97144.44;;;-2.20;61.53
47556;BME280;33291;46.222;26.460;2023-03-18T02:18:02;97136.84;;;-2.23;62.04
47556;BME280;33291;46.222;26.460;2023-03-18T02:20:43;97143.66;;;-2.22;62.12
47556;BME280;33291;46.222;26.460;2023-03-18T02:23:23;97139.41;;;-2.23;61.35
47556;BME280;33291;46.222;26.460;2023-03-18T02:28:31;97115.66;;;-2.25;61.27
47556;BME280;33291;46.222;26.460;2023-03-18T02:31:00;97130.78;;;-2.19;61.44
47556;BME280;33291;46.222;26.460;2023-03-18T02:33:31;97138.59;;;-2.24;62.16
47556;BME280;33291;46.222;26.460;2023-03-18T02:36:06;97095.06;;;-2.49;62.20
47556;BME280;33291;46.222;26.460;2023-03-18T02:38:31;97131.16;;;-2.32;62.23
47556;BME280;33291;46.222;26.460;2023-03-18T02:40:57;97121.91;;;-2.36;62.41
47556;BME280;33291;46.222;26.460;2023-03-18T02:43:28;97115.31;;;-2.43;61.59
47556;BME280;33291;46.222;26.460;2023-03-18T02:48:29;97136.16;;;-2.28;61.59
47556;BME280;33291;46.222;26.460;2023-03-18T02:50:57;97124.31;;;-2.31;61.85
47556;BME280;33291;46.222;26.460;2023-03-18T02:53:23;97128.50;;;-2.28;62.09
47556;BME280;33291;46.222;26.460;2023-03-18T02:55:49;97098.38;;;-2.45;62.29
47556;BME280;33291;46.222;26.460;2023-03-18T02:58:14;97117.69;;;-2.37;62.25
47556;BME280;33291;46.222;26.460;2023-03-18T03:00:40;97124.31;;;-2.31;62.22
47556;BME280;33291;46.222;26.460;2023-03-18T03:03:06;97107.69;;;-2.43;62.14
47556;BME280;33291;46.222;26.460;2023-03-18T03:05:33;97124.53;;;-2.39;62.30
47556;BME280;33291;46.222;26.460;2023-03-18T03:07:58;97119.53;;;-2.42;62.58
47556;BME280;33291;46.222;26.460;2023-03-18T03:10:24;97121.22;;;-2.41;62.63
47556;BME280;33291;46.222;26.460;2023-03-18T03:12:50;97122.91;;;-2.40;62.76
47556;BME280;33291;46.222;26.460;2023-03-18T03:15:17;97125.41;;;-2.38;62.71
47556;BME280;33291;46.222;26.460;2023-03-18T03:17:43;97119.63;;;-2.45;62.92
47556;BME280;33291;46.222;26.460;2023-03-18T03:20:09;97118.72;;;-2.42;63.13
47556;BME280;33291;46.222;26.460;2023-03-18T03:22:35;97111.09;;;-2.44;63.50
47556;BME280;33291;46.222;26.460;2023-03-18T03:25:01;97115.25;;;-2.40;63.58
47556;BME280;33291;46.222;26.460;2023-03-18T03:27:27;97118.53;;;-2.36;63.59
47556;BME280;33291;46.222;26.460;2023-03-18T03:29:53;97116.03;;;-2.38;63.44
47556;BME280;33291;46.222;26.460;2023-03-18T03:32:20;97115.94;;;-2.35;63.24
47556;BME280;33291;46.222;26.460;2023-03-18T03:34:45;97118.41;;;-2.32;63.52
47556;BME280;33291;46.222;26.460;2023-03-18T03:37:12;97115.00;;;-2.32;63.90
47556;BME280;33291;46.222;26.460;2023-03-18T03:39:38;97114.94;;;-2.29;63.57
47556;BME280;33291;46.222;26.460;2023-03-18T03:42:03;97118.13;;;-2.22;63.64
47556;BME280;33291;46.222;26.460;2023-03-18T03:44:29;97107.19;;;-2.26;63.51
47556;BME280;33291;46.222;26.460;2023-03-18T03:46:55;97112.25;;;-2.24;63.55
47556;BME280;33291;46.222;26.460;2023-03-18T03:49:20;97115.66;;;-2.25;63.41
47556;BME280;33291;46.222;26.460;2023-03-18T03:51:46;97118.91;;;-2.20;63.70
47556;BME280;33291;46.222;26.460;2023-03-18T03:54:12;97122.25;;;-2.18;63.93
47556;BME280;33291;46.222;26.460;2023-03-18T03:56:38;97127.28;;;-2.15;63.89
47556;BME280;33291;46.222;26.460;2023-03-18T03:59:04;97124.72;;;-2.15;63.79
47556;BME280;33291;46.222;26.460;2023-03-18T04:01:29;97115.44;;;-2.18;63.87
47556;BME280;33291;46.222;26.460;2023-03-18T04:03:55;97123.81;;;-2.12;64.32
47556;BME280;33291;46.222;26.460;2023-03-18T04:06:21;97117.94;;;-2.16;64.37
47556;BME280;33291;46.222;26.460;2023-03-18T04:08:46;97123.84;;;-2.14;64.61
47556;BME280;33291;46.222;26.460;2023-03-18T04:11:12;97123.91;;;-2.17;64.78
47556;BME280;33291;46.222;26.460;2023-03-18T04:13:37;97128.97;;;-2.14;64.65
47556;BME280;33291;46.222;26.460;2023-03-18T04:16:04;97120.41;;;-2.13;63.80
47556;BME280;33291;46.222;26.460;2023-03-18T04:18:29;97121.94;;;-2.07;63.33
47556;BME280;33291;46.222;26.460;2023-03-18T04:20:55;97116.84;;;-2.07;62.52
47556;BME280;33291;46.222;26.460;2023-03-18T04:23:20;97131.97;;;-2.01;62.38
47556;BME280;33291;46.222;26.460;2023-03-18T04:25:46;97126.72;;;-1.97;62.88
47556;BME280;33291;46.222;26.460;2023-03-18T04:28:11;97125.91;;;-1.97;63.18
47556;BME280;33291;46.222;26.460;2023-03-18T04:30:38;97128.31;;;-1.92;63.22
47556;BME280;33291;46.222;26.460;2023-03-18T04:33:04;97120.69;;;-1.94;63.41
47556;BME280;33291;46.222;26.460;2023-03-18T04:35:29;97129.00;;;-1.87;63.56
47556;BME280;33291;46.222;26.460;2023-03-18T04:37:55;97122.19;;;-1.88;63.08
47556;BME280;33291;46.222;26.460;2023-03-18T04:40:21;97120.31;;;-1.82;62.74
47556;BME280;33291;46.222;26.460;2023-03-18T04:42:46;97107.50;;;-1.80;62.53
47556;BME280;33291;46.222;26.460;2023-03-18T04:45:13;97104.81;;;-1.75;62.12
47556;BME280;33291;46.222;26.460;2023-03-18T04:47:40;97101.31;;;-1.73;61.46
47556;BME280;33291;46.222;26.460;2023-03-18T04:50:08;97110.53;;;-1.69;61.35
47556;BME280;33291;46.222;26.460;2023-03-18T04:52:41;97113.91;;;-1.67;61.58
47556;BME280;33291;46.222;26.460;2023-03-18T04:55:07;97121.38;;;-1.61;61.86
47556;BME280;33291;46.222;26.460;2023-03-18T04:57:34;97090.41;;;-1.78;61.69
47556;BME280;33291;46.222;26.460;2023-03-18T05:00:05;97122.91;;;-1.55;61.09
47556;BME280;33291;46.222;26.460;2023-03-18T05:02:31;97116.97;;;-1.57;60.90
47556;BME280;33291;46.222;26.460;2023-03-18T05:04:56;97117.69;;;-1.52;60.93
47556;BME280;33291;46.222;26.460;2023-03-18T05:07:22;97122.59;;;-1.46;61.06
47556;BME280;33291;46.222;26.460;2023-03-18T05:09:47;97119.13;;;-1.45;60.80
47556;BME280;33291;46.222;26.460;2023-03-18T05:12:14;97121.53;;;-1.40;60.79
47556;BME280;33291;46.222;26.460;2023-03-18T05:14:43;97121.34;;;-1.34;60.34
47556;BME280;33291;46.222;26.460;2023-03-18T05:17:10;97119.59;;;-1.32;60.42
47556;BME280;33291;46.222;26.460;2023-03-18T05:19:45;97121.03;;;-1.25;60.25
47556;BME280;33291;46.222;26.460;2023-03-18T05:22:12;97102.47;;;-1.30;59.81
47556;BME280;33291;46.222;26.460;2023-03-18T05:24:39;97118.31;;;-1.18;59.95
47556;BME280;33291;46.222;26.460;2023-03-18T05:27:05;97119.91;;;-1.16;60.31
47556;BME280;33291;46.222;26.460;2023-03-18T05:29:30;97120.69;;;-1.14;59.91
47556;BME280;33291;46.222;26.460;2023-03-18T05:31:56;97100.56;;;-1.23;59.96
47556;BME280;33291;46.222;26.460;2023-03-18T05:34:22;97133.34;;;-1.09;60.66
47556;BME280;33291;46.222;26.460;2023-03-18T05:36:48;97130.78;;;-1.09;60.76
47556;BME280;33291;46.222;26.460;2023-03-18T05:39:13;97117.19;;;-1.11;60.47
47556;BME280;33291;46.222;26.460;2023-03-18T05:41:39;97135.69;;;-1.03;60.71
47556;BME280;33291;46.222;26.460;2023-03-18T05:44:05;97127.91;;;-1.00;60.81
47556;BME280;33291;46.222;26.460;2023-03-18T05:46:31;97143.16;;;-0.97;60.78
47556;BME280;33291;46.222;26.460;2023-03-18T05:48:57;97146.31;;;-0.90;60.72
47556;BME280;33291;46.222;26.460;2023-03-18T05:51:23;97144.56;;;-0.88;60.38
47556;BME280;33291;46.222;26.460;2023-03-18T05:53:49;97143.50;;;-0.82;60.69
47556;BME280;33291;46.222;26.460;2023-03-18T05:56:14;97145.94;;;-0.79;60.91
47556;BME280;33291;46.222;26.460;2023-03-18T05:58:40;97126.72;;;-0.90;60.98
47556;BME280;33291;46.222;26.460;2023-03-18T06:01:06;97141.63;;;-0.77;60.73
47556;BME280;33291;46.222;26.460;2023-03-18T06:03:32;97147.47;;;-0.74;61.19
47556;BME280;33291;46.222;26.460;2023-03-18T06:05:59;97149.97;;;-0.72;61.13
47556;BME280;33291;46.222;26.460;2023-03-18T06:08:26;97146.63;;;-0.74;60.99
47556;BME280;33291;46.222;26.460;2023-03-18T06:10:52;97156.66;;;-0.68;61.25
47556;BME280;33291;46.222;26.460;2023-03-18T06:13:18;97153.06;;;-0.64;60.34
47556;BME280;33291;46.222;26.460;2023-03-18T06:15:44;97147.19;;;-0.66;60.38
47556;BME280;33291;46.222;26.460;2023-03-18T06:18:11;97156.34;;;-0.59;60.46
47556;BME280;33291;46.222;26.460;2023-03-18T06:20:37;97146.03;;;-0.57;61.57
47556;BME280;33291;46.222;26.460;2023-03-18T06:23:02;97167.91;;;-0.48;61.78
47556;BME280;33291;46.222;26.460;2023-03-18T06:25:30;97154.22;;;-0.47;61.91
47556;BME280;33291;46.222;26.460;2023-03-18T06:27:56;97160.25;;;-0.48;61.71
47556;BME280;33291;46.222;26.460;2023-03-18T06:30:21;97156.78;;;-0.47;62.12
47556;BME280;33291;46.222;26.460;2023-03-18T06:32:47;97170.38;;;-0.45;62.01
47556;BME280;33291;46.222;26.460;2023-03-18T06:35:13;97170.25;;;-0.42;61.14
47556;BME280;33291;46.222;26.460;2023-03-18T06:37:40;97160.91;;;-0.43;60.00
47556;BME280;33291;46.222;26.460;2023-03-18T06:40:06;97175.81;;;-0.31;59.75
47556;BME280;33291;46.222;26.460;2023-03-18T06:42:32;97172.25;;;-0.27;59.53
47556;BME280;33291;46.222;26.460;2023-03-18T06:44:57;97176.44;;;-0.24;59.20
47556;BME280;33291;46.222;26.460;2023-03-18T06:47:23;97166.91;;;-0.21;58.97
47556;BME280;33291;46.222;26.460;2023-03-18T06:49:49;97181.94;;;-0.11;59.16
47556;BME280;33291;46.222;26.460;2023-03-18T06:52:16;97166.53;;;-0.10;59.20
47556;BME280;33291;46.222;26.460;2023-03-18T06:54:42;97169.78;;;-0.06;59.46
47556;BME280;33291;46.222;26.460;2023-03-18T06:57:08;97167.28;;;-0.08;59.05
47556;BME280;33291;46.222;26.460;2023-03-18T06:59:34;97173.09;;;-0.03;58.99
47556;BME280;33291;46.222;26.460;2023-03-18T07:02:00;97184.72;;;0.06;58.62
47556;BME280;33291;46.222;26.460;2023-03-18T07:04:26;97182.13;;;0.08;59.01
47556;BME280;33291;46.222;26.460;2023-03-18T07:06:52;97178.63;;;0.09;58.73
47556;BME280;33291;46.222;26.460;2023-03-18T07:09:18;97182.94;;;0.08;58.89
47556;BME280;33291;46.222;26.460;2023-03-18T07:11:44;97190.34;;;0.16;58.80
47556;BME280;33291;46.222;26.460;2023-03-18T07:14:12;97184.50;;;0.12;58.76
47556;BME280;33291;46.222;26.460;2023-03-18T07:16:39;97186.84;;;0.19;58.58
47556;BME280;33291;46.222;26.460;2023-03-18T07:19:04;97197.72;;;0.24;58.55
47556;BME280;33291;46.222;26.460;2023-03-18T07:21:30;97188.19;;;0.27;58.58
47556;BME280;33291;46.222;26.460;2023-03-18T07:23:56;97190.59;;;0.32;58.38
47556;BME280;33291;46.222;26.460;2023-03-18T07:26:21;97194.75;;;0.34;58.43
47556;BME280;33291;46.222;26.460;2023-03-18T07:28:47;97187.75;;;0.40;58.34
47556;BME280;33291;46.222;26.460;2023-03-18T07:31:12;97185.25;;;0.38;57.86
47556;BME280;33291;46.222;26.460;2023-03-18T07:33:38;97187.50;;;0.46;57.54
47556;BME280;33291;46.222;26.460;2023-03-18T07:36:04;97198.28;;;0.54;57.63
47556;BME280;33291;46.222;26.460;2023-03-18T07:38:29;97201.56;;;0.58;57.35
47556;BME280;33291;46.222;26.460;2023-03-18T07:40:55;97209.91;;;0.63;56.94
47556;BME280;33291;46.222;26.460;2023-03-18T07:43:21;97205.44;;;0.68;57.01
47556;BME280;33291;46.222;26.460;2023-03-18T07:45:46;97204.41;;;0.72;56.76
47556;BME280;33291;46.222;26.460;2023-03-18T07:48:13;97206.09;;;0.73;56.73
47556;BME280;33291;46.222;26.460;2023-03-18T07:50:39;97212.56;;;0.82;56.70
47556;BME280;33291;46.222;26.460;2023-03-18T07:53:06;97208.94;;;0.87;56.47
47556;BME280;33291;46.222;26.460;2023-03-18T07:55:31;97202.97;;;0.87;56.24
47556;BME280;33291;46.222;26.460;2023-03-18T07:57:57;97205.34;;;0.92;56.41
47556;BME280;33291;46.222;26.460;2023-03-18T08:00:24;97212.69;;;1.01;56.89
47556;BME280;33291;46.222;26.460;2023-03-18T08:02:50;97214.09;;;1.08;56.39
47556;BME280;33291;46.222;26.460;2023-03-18T08:05:17;97214.03;;;1.10;56.28
47556;BME280;33291;46.222;26.460;2023-03-18T08:07:43;97180.81;;;1.06;56.29
47556;BME280;33291;46.222;26.460;2023-03-18T08:10:10;97201.78;;;1.16;56.11
47556;BME280;33291;46.222;26.460;2023-03-18T08:12:36;97213.41;;;1.25;56.05
47556;BME280;33291;46.222;26.460;2023-03-18T08:15:02;97174.06;;;1.04;56.17
47556;BME280;33291;46.222;26.460;2023-03-18T08:17:29;97206.34;;;1.30;56.16
47556;BME280;33291;46.222;26.460;2023-03-18T08:19:54;97202.00;;;1.32;55.95
47556;BME280;33291;46.222;26.460;2023-03-18T08:22:20;97216.03;;;1.44;55.99
47556;BME280;33291;46.222;26.460;2023-03-18T08:24:46;97208.25;;;1.46;55.90
47556;BME280;33291;46.222;26.460;2023-03-18T08:27:12;97211.41;;;1.52;55.58
47556;BME280;33291;46.222;26.460;2023-03-18T08:29:38;97211.97;;;1.59;55.49
47556;BME280;33291;46.222;26.460;2023-03-18T08:32:03;97214.16;;;1.68;55.18
47556;BME280;33291;46.222;26.460;2023-03-18T08:34:29;97210.69;;;1.69;54.45
47556;BME280;33291;46.222;26.460;2023-03-18T08:36:54;97219.59;;;1.81;54.43
47556;BME280;33291;46.222;26.460;2023-03-18T08:39:20;97225.34;;;1.86;54.68
47556;BME280;33291;46.222;26.460;2023-03-18T08:41:46;97215.81;;;1.90;53.92
47556;BME280;33291;46.222;26.460;2023-03-18T08:44:12;97224.81;;;1.99;53.61
47556;BME280;33291;46.222;26.460;2023-03-18T08:46:38;97215.38;;;1.99;53.50
47556;BME280;33291;46.222;26.460;2023-03-18T08:49:05;97223.50;;;2.09;53.38
47556;BME280;33291;46.222;26.460;2023-03-18T08:51:31;97230.06;;;2.16;53.61
47556;BME280;33291;46.222;26.460;2023-03-18T08:53:57;97229.03;;;2.20;53.57
47556;BME280;33291;46.222;26.460;2023-03-18T08:56:22;97219.28;;;2.27;53.09
47556;BME280;33291;46.222;26.460;2023-03-18T08:58:48;97219.97;;;2.30;52.52
47556;BME280;33291;46.222;26.460;2023-03-18T09:01:14;97218.94;;;2.35;52.08
47556;BME280;33291;46.222;26.460;2023-03-18T09:03:40;97203.78;;;2.28;51.55
47556;BME280;33291;46.222;26.460;2023-03-18T09:06:06;97222.75;;;2.45;51.35
47556;BME280;33291;46.222;26.460;2023-03-18T09:08:31;97215.94;;;2.44;51.09
47556;BME280;33291;46.222;26.460;2023-03-18T09:10:58;97226.72;;;2.52;50.88
47556;BME280;33291;46.222;26.460;2023-03-18T09:13:24;97224.81;;;2.56;50.94
47556;BME280;33291;46.222;26.460;2023-03-18T09:15:50;97216.97;;;2.59;50.53
47556;BME280;33291;46.222;26.460;2023-03-18T09:18:16;97228.84;;;2.61;50.28
47556;BME280;33291;46.222;26.460;2023-03-18T09:20:43;97239.59;;;2.70;50.52
47556;BME280;33291;46.222;26.460;2023-03-18T09:23:10;97233.41;;;2.74;50.33
47556;BME280;33291;46.222;26.460;2023-03-18T09:25:37;97231.59;;;2.76;50.13
47556;BME280;33291;46.222;26.460;2023-03-18T09:28:02;97223.81;;;2.77;49.81
47556;BME280;33291;46.222;26.460;2023-03-18T09:30:28;97232.00;;;2.86;49.43
47556;BME280;33291;46.222;26.460;2023-03-18T09:32:54;97229.06;;;2.93;49.00
47556;BME280;33291;46.222;26.460;2023-03-18T09:35:20;97229.06;;;2.93;49.36
47556;BME280;33291;46.222;26.460;2023-03-18T09:37:46;97231.44;;;2.98;49.29
47556;BME280;33291;46.222;26.460;2023-03-18T09:40:21;97232.25;;;2.98;49.53
47556;BME280;33291;46.222;26.460;2023-03-18T09:45:31;97225.69;;;3.10;49.24
47556;BME280;33291;46.222;26.460;2023-03-18T09:48:17;97225.53;;;3.13;49.36
47556;BME280;33291;46.222;26.460;2023-03-18T09:56:17;97225.31;;;3.18;48.93
47556;BME280;33291;46.222;26.460;2023-03-18T09:58:51;97225.31;;;3.18;49.21
47556;BME280;33291;46.222;26.460;2023-03-18T10:01:18;97232.28;;;3.33;48.79
47556;BME280;33291;46.222;26.460;2023-03-18T10:03:46;97236.44;;;3.36;49.01
47556;BME280;33291;46.222;26.460;2023-03-18T10:06:17;97233.63;;;3.41;49.13
47556;BME280;33291;46.222;26.460;2023-03-18T10:11:22;97227.50;;;3.43;48.57
47556;BME280;33291;46.222;26.460;2023-03-18T10:16:48;97225.59;;;3.47;48.53
47556;BME280;33291;46.222;26.460;2023-03-18T10:19:17;97223.84;;;3.47;47.96
47556;BME280;33291;46.222;26.460;2023-03-18T10:21:56;97222.03;;;3.49;47.87
47556;BME280;33291;46.222;26.460;2023-03-18T10:24:35;97229.31;;;3.59;48.20
47556;BME280;33291;46.222;26.460;2023-03-18T10:29:51;97221.13;;;3.68;48.23
47556;BME280;33291;46.222;26.460;2023-03-18T10:32:48;97215.72;;;3.72;48.24
47556;BME280;33291;46.222;26.460;2023-03-18T10:35:53;97190.44;;;3.63;47.91
47556;BME280;33291;46.222;26.460;2023-03-18T10:38:30;97210.16;;;3.80;48.28
47556;BME280;33291;46.222;26.460;2023-03-18T10:40:59;97218.84;;;3.95;47.91
47556;BME280;33291;46.222;26.460;2023-03-18T10:43:28;97204.72;;;4.02;47.53
47556;BME280;33291;46.222;26.460;2023-03-18T10:46:05;97209.56;;;4.08;47.37
47556;BME280;33291;46.222;26.460;2023-03-18T10:48:38;97204.25;;;4.12;47.39
47556;BME280;33291;46.222;26.460;2023-03-18T10:56:27;97193.84;;;4.29;47.55
47556;BME280;33291;46.222;26.460;2023-03-18T10:58:54;97203.66;;;4.38;47.91
47556;BME280;33291;46.222;26.460;2023-03-18T11:01:22;97189.78;;;4.41;48.08
47556;BME280;33291;46.222;26.460;2023-03-18T11:03:57;97197.09;;;4.49;47.95
47556;BME280;33291;46.222;26.460;2023-03-18T11:06:43;97183.13;;;4.53;48.62
47556;BME280;33291;46.222;26.460;2023-03-18T11:09:14;97181.59;;;4.65;49.00
47556;BME280;33291;46.222;26.460;2023-03-18T11:11:45;97176.03;;;4.72;49.66
47556;BME280;33291;46.222;26.460;2023-03-18T11:14:17;97171.69;;;4.73;49.10
47556;BME280;33291;46.222;26.460;2023-03-18T11:16:55;97172.16;;;4.79;49.15
47556;BME280;33291;46.222;26.460;2023-03-18T11:19:35;97154.53;;;4.72;49.90
47556;BME280;33291;46.222;26.460;2023-03-18T11:24:42;97170.88;;;5.03;50.53
47556;BME280;33291;46.222;26.460;2023-03-18T11:29:48;97161.31;;;5.19;50.31
47556;BME280;33291;46.222;26.460;2023-03-18T11:32:29;97146.84;;;5.16;50.72
47556;BME280;33291;46.222;26.460;2023-03-18T11:34:59;97162.34;;;5.31;50.71
47556;BME280;33291;46.222;26.460;2023-03-18T11:37:39;97155.91;;;5.38;50.91
47556;BME280;33291;46.222;26.460;2023-03-18T11:40:25;97155.28;;;5.49;50.87
47556;BME280;33291;46.222;26.460;2023-03-18T11:42:59;97144.56;;;5.55;51.32
47556;BME280;33291;46.222;26.460;2023-03-18T11:47:51;97142.16;;;5.81;51.01
47556;BME280;33291;46.222;26.460;2023-03-18T11:50:21;97132.09;;;5.91;51.35
47556;BME280;33291;46.222;26.460;2023-03-18T11:55:40;97142.06;;;6.11;50.84
47556;BME280;33291;46.222;26.460;2023-03-18T12:00:43;97135.13;;;6.26;50.62
47556;BME280;33291;46.222;26.460;2023-03-18T12:06:26;97132.38;;;6.42;50.01
47556;BME280;33291;46.222;26.460;2023-03-18T12:14:52;97132.25;;;6.58;50.06
47556;BME280;33291;46.222;26.460;2023-03-18T12:34:02;97104.19;;;7.05;49.09
47556;BME280;33291;46.222;26.460;2023-03-18T12:42:23;97104.19;;;7.31;48.57
47556;BME280;33291;46.222;26.460;2023-03-18T12:45:09;97100.44;;;7.35;48.46
47556;BME280;33291;46.222;26.460;2023-03-18T12:47:38;97089.66;;;7.41;48.41
47556;BME280;33291;46.222;26.460;2023-03-18T12:50:17;97083.22;;;7.46;48.53
47556;BME280;33291;46.222;26.460;2023-03-18T12:52:52;97083.44;;;7.56;48.46
47556;BME280;33291;46.222;26.460;2023-03-18T12:55:26;97072.34;;;7.54;48.38
47556;BME280;33291;46.222;26.460;2023-03-18T12:58:05;97081.03;;;7.66;48.14
47556;BME280;33291;46.222;26.460;2023-03-18T13:00:48;97077.91;;;7.74;48.34
47556;BME280;33291;46.222;26.460;2023-03-18T13:03:58;97075.94;;;7.77;48.45
47556;BME280;33291;46.222;26.460;2023-03-18T13:06:34;97065.97;;;7.84;48.53
47556;BME280;33291;46.222;26.460;2023-03-18T13:09:20;97072.97;;;7.95;48.47
47556;BME280;33291;46.222;26.460;2023-03-18T13:12:10;97056.38;;;7.97;48.24
47556;BME280;33291;46.222;26.460;2023-03-18T13:17:38;97066.91;;;8.20;48.12
47556;BME280;33291;46.222;26.460;2023-03-18T13:20:28;97059.47;;;8.27;47.79
47556;BME280;33291;46.222;26.460;2023-03-18T13:47:58;97040.31;;;8.41;47.58
47556;BME280;33291;46.222;26.460;2023-03-18T13:50:41;97036.59;;;8.45;47.51
47556;BME280;33291;46.222;26.460;2023-03-18T13:55:48;97037.00;;;8.63;47.10
47556;BME280;33291;46.222;26.460;2023-03-18T14:14:00;97019.50;;;9.00;45.76
47556;BME280;33291;46.222;26.460;2023-03-18T14:19:05;97019.84;;;9.07;45.75
47556;BME280;33291;46.222;26.460;2023-03-18T14:21:45;97008.25;;;9.00;45.42
47556;BME280;33291;46.222;26.460;2023-03-18T14:27:08;97012.03;;;8.96;45.63
47556;BME280;33291;46.222;26.460;2023-03-18T14:29:42;97008.16;;;8.90;45.75
47556;BME280;33291;46.222;26.460;2023-03-18T14:32:38;97008.59;;;8.84;46.23
47556;BME280;33291;46.222;26.460;2023-03-18T14:38:00;96999.72;;;10.95;41.54
47556;BME280;33291;46.222;26.460;2023-03-18T14:40:50;97008.13;;;11.30;40.54
47556;BME280;33291;46.222;26.460;2023-03-18T14:43:24;97001.19;;;12.88;37.83
47556;BME280;33291;46.222;26.460;2023-03-18T14:45:55;97000.50;;;14.17;35.35
47556;BME280;33291;46.222;26.460;2023-03-18T14:48:32;97007.78;;;15.03;33.54
47556;BME280;33291;46.222;26.460;2023-03-18T14:51:02;96998.88;;;14.96;33.51
47556;BME280;33291;46.222;26.460;2023-03-18T14:53:39;97010.19;;;15.57;32.31
47556;BME280;33291;46.222;26.460;2023-03-18T14:56:19;96997.50;;;14.48;33.27
47556;BME280;33291;46.222;26.460;2023-03-18T14:58:46;97006.69;;;12.85;36.20
47556;BME280;33291;46.222;26.460;2023-03-18T15:01:13;97010.50;;;11.83;38.38
47556;BME280;33291;46.222;26.460;2023-03-18T15:03:46;97006.09;;;11.02;40.05
47556;BME280;33291;46.222;26.460;2023-03-18T15:06:20;96992.78;;;10.42;41.17
47556;BME280;33291;46.222;26.460;2023-03-18T15:08:52;97015.09;;;10.24;41.80
47556;BME280;33291;46.222;26.460;2023-03-18T15:11:23;97026.88;;;9.95;42.52